Terminal Aerodrome Forecast
Issued by NWS Paducah, KY

Home | Current Version | Previous Version | Text Only | Print | Product List | Glossary On
Versions: 1 2 3 4 5 6 7 8 9 10 11 12
000
FTUS43 KPAH 211700
TAFEVV
TAF
KEVV 211735Z 2118/2218 23011KT P6SM SCT050 BKN080
     FM212000 23008KT P6SM VCSH SCT030 BKN060
      TEMPO 2201/2205 5SM SHRA BR BKN030CB
     FM220700 27008KT P6SM BKN035
     FM221000 30009KT P6SM BKN035=

USA.gov is the U.S. government's official web portal to all federal, state and local government web resources and services.